ジャージー島 の空港の天気 - METARとTAF

ジャージー空港 ( EGJJ / JER ) - ジャージー島 ジャージー島
飛行場実況気象(Metar)
観測時間02/21 14:50 GMT (02/21 14:50 UTC)
風向・風速南西 8m/s
視程10km以上
天気現象
少しの雲 雲底高度 910m
気温11℃
湿度71%
気圧1028hPa
METAREGJJ 211450Z 23015KT 9999 FEW030 11/06 Q1028
過去の天気等 Google飛行場航空写真 Wunderground天気予報

過去48時間のMETAR

飛行場予報(TAF)
発表時間: 2/21 13:56 GMT (2/21 13:56 UTC)
予報対象時間: 21日15時 GMT ~ 22日0時 GMT
風向・風速南西 8m/s
視程10km以上
少しの雲 雲底高度 610m
全天の4割程度の雲 雲底高度 980m
21日17時 GMT ~ 21日19時 GMT に徐々に
風向・風速南西 9m/s 瞬間風速 14m/s
TAF EGJJ 211356Z 2115/2200 23015KT 9999 FEW020 SCT032
BECMG 2117/2119 23018G28KT